Accueil
METAR-TAF:

METAR-TAF

Aéroports :

Aéroport Konrad-Adenauer de Cologne/Bonn

Cologne, Allemagne

latitude: 50-52N, longitude: 007-10E, altitude: 91 m

Observation

Le bulletin a été fait il y a 20 minutes, à 01:50 UTC
Vent 5 kt de est, variant entre est/nord-est et sud-est
Température 2°C
Humidité 80%
Pression 1011 hPa
Visibilité 10 km ou plus
pas de nuages en-dessous de 1500 mètres et pas de cumulonimbus.

METAR: EDDK 210150Z 10005KT 060V130 CAVOK 02/M01 Q1011 NOSIG

Heure: 03:10 (02:10 UTC)

Prévision

Le bulletin a été fait il y a 3 heures et 10 minutes, à 23:00 UTC
Prévision valable du 21 à 00 UTC au 22 à 06 UTC
Vent 10 kt de est/sud-est
Visibilité 10 km ou plus
Nuages épars à une hauteur de 3000 ft
Evoluant progressivement
du 21 à 00 UTC au 21 à 03 UTC
Vent 5 kt de est/sud-est

TAF: EDDK 202300Z 2100/2206 11010KT 9999 SCT030 BECMG 2100/2103 12005KT

Observations et prévisions météorologiques de plus de 4000 aéroports (messages METAR et TAF).

Les stations disponibles sont représentées par des disques jaunes et rouges sur la carte.

Passer la souris dessus pour voir le nom de la station.

Cliquer dessus pour voir les observations et prévisions météorologiques.

Pour changer de carte: cliquez sur les boutons verts avec une croix noire pour zoomer, sur le bouton vert avec un tiret pour effectuer un zoom arrière, ou sur les flèches vertes pour les cartes adjacentes.


METAR-TAF: